Time;durP1;ratioP1;P1;durP2;ratioP2;P2;SDS_P1;SDS_P2;PMS_P1;PMS_P2;Temp;Humidity;BMP_temperature;BMP_pressure;BME280_temperature;BME280_humidity;BME280_pressure;Samples;Min_cycle;Max_cycle;Signal;HPM_P1;HPM_P2
2021/03/17 00:00:23;;;;;;;5.25;2.08;;;;;;;;;;5099108;28;20604;-62
2021/03/17 00:02:50;;;;;;;5.40;2.03;;;;;;;;;;5100820;28;20579;-61
2021/03/17 00:05:17;;;;;;;4.22;2.15;;;;;;;;;;5099111;28;20277;-62
2021/03/17 00:07:44;;;;;;;5.35;1.77;;;;;;;;;;5097974;28;20277;-62
2021/03/17 00:10:12;;;;;;;4.13;1.70;;;;;;;;;;5098993;28;20200;-62
2021/03/17 00:12:39;;;;;;;3.28;1.98;;;;;;;;;;5097723;28;20208;-62
2021/03/17 00:15:06;;;;;;;6.82;2.20;;;;;;;;;;5097864;28;20704;-62
2021/03/17 00:17:34;;;;;;;7.53;2.85;;;;;;;;;;5096325;28;20257;-62
2021/03/17 00:20:01;;;;;;;7.78;2.88;;;;;;;;;;5094800;28;20270;-61
2021/03/17 00:22:28;;;;;;;5.13;2.50;;;;;;;;;;5097714;28;20204;-62
2021/03/17 00:24:55;;;;;;;13.48;3.28;;;;;;;;;;5103447;28;20220;-62
2021/03/17 00:27:22;;;;;;;7.25;2.70;;;;;;;;;;5103760;28;20212;-62
2021/03/17 00:29:48;;;;;;;4.03;2.55;;;;;;;;;;5104269;28;20204;-62
2021/03/17 00:32:15;;;;;;;4.82;2.25;;;;;;;;;;5103732;28;20208;-62
2021/03/17 00:34:43;;;;;;;7.63;2.97;;;;;;;;;;5102948;28;20269;-63
2021/03/17 00:37:10;;;;;;;7.15;2.75;;;;;;;;;;5103412;28;20226;-62
2021/03/17 00:39:36;;;;;;;7.80;2.15;;;;;;;;;;5102683;28;20208;-61
2021/03/17 00:42:03;;;;;;;5.63;2.30;;;;;;;;;;5100665;28;20613;-62
2021/03/17 00:44:30;;;;;;;2.53;1.90;;;;;;;;;;5099566;28;20227;-62
2021/03/17 00:46:57;;;;;;;5.85;2.10;;;;;;;;;;5099792;28;20254;-62
2021/03/17 00:49:23;;;;;;;6.50;1.83;;;;;;;;;;5098520;28;20224;-63
2021/03/17 00:51:51;;;;;;;4.15;1.90;;;;;;;;;;5098789;28;20197;-62
2021/03/17 00:54:18;;;;;;;3.03;1.60;;;;;;;;;;5099246;28;20224;-61
2021/03/17 00:56:45;;;;;;;1.40;1.30;;;;;;;;;;5098411;28;20196;-61
2021/03/17 00:59:11;;;;;;;3.55;1.55;;;;;;;;;;5098096;28;20204;-62
2021/03/17 01:01:38;;;;;;;4.07;1.33;;;;;;;;;;5097975;28;20672;-62
2021/03/17 01:04:05;;;;;;;2.45;1.40;;;;;;;;;;5097458;28;20216;-62
2021/03/17 01:06:32;;;;;;;3.17;1.75;;;;;;;;;;5097172;28;20208;-62
2021/03/17 01:08:59;;;;;;;2.40;1.70;;;;;;;;;;5096922;28;20216;-62
2021/03/17 01:11:26;;;;;;;6.88;1.90;;;;;;;;;;5097097;28;20196;-62
2021/03/17 01:13:53;;;;;;;5.43;1.80;;;;;;;;;;5096933;28;20227;-63
2021/03/17 01:16:19;;;;;;;2.40;1.63;;;;;;;;;;5097302;28;20204;-62
2021/03/17 01:18:46;;;;;;;1.95;1.42;;;;;;;;;;5098485;28;20196;-61
2021/03/17 01:21:13;;;;;;;2.38;1.60;;;;;;;;;;5098669;28;20581;-63
2021/03/17 01:23:40;;;;;;;2.25;1.67;;;;;;;;;;5097980;28;20216;-62
2021/03/17 01:26:07;;;;;;;4.93;2.50;;;;;;;;;;5098762;28;20204;-62
2021/03/17 01:28:34;;;;;;;3.88;2.30;;;;;;;;;;5097238;28;20224;-62
2021/03/17 01:31:01;;;;;;;3.22;2.00;;;;;;;;;;5096488;28;20321;-62
2021/03/17 01:33:29;;;;;;;2.17;1.98;;;;;;;;;;5096093;28;20722;-62
2021/03/17 01:35:56;;;;;;;3.25;2.53;;;;;;;;;;5095368;28;20204;-62
2021/03/17 01:38:23;;;;;;;2.17;2.08;;;;;;;;;;5095920;28;20200;-62
2021/03/17 01:40:50;;;;;;;3.72;2.50;;;;;;;;;;5096254;28;20250;-62
2021/03/17 01:43:18;;;;;;;3.28;2.30;;;;;;;;;;5096113;28;20204;-62
2021/03/17 01:45:45;;;;;;;5.50;3.30;;;;;;;;;;5096251;28;20207;-62
2021/03/17 01:48:12;;;;;;;5.63;3.08;;;;;;;;;;5096041;28;20227;-61
2021/03/17 01:50:40;;;;;;;3.90;3.30;;;;;;;;;;5096198;28;20208;-62
2021/03/17 01:53:08;;;;;;;4.70;2.90;;;;;;;;;;5097227;28;20352;-62
2021/03/17 01:55:36;;;;;;;5.50;2.80;;;;;;;;;;5095708;28;20224;-62
2021/03/17 01:58:03;;;;;;;4.18;3.20;;;;;;;;;;5096108;28;20196;-61
2021/03/17 02:00:31;;;;;;;5.30;2.50;;;;;;;;;;5095950;28;20222;-62
2021/03/17 02:02:58;;;;;;;7.55;3.13;;;;;;;;;;5095867;28;20601;-61
2021/03/17 02:05:26;;;;;;;8.35;3.42;;;;;;;;;;5095883;28;20216;-62
2021/03/17 02:07:54;;;;;;;9.05;2.92;;;;;;;;;;5096142;28;20220;-62
2021/03/17 02:10:21;;;;;;;6.30;3.30;;;;;;;;;;5097365;28;20282;-62
2021/03/17 02:12:50;;;;;;;4.88;3.15;;;;;;;;;;5096060;28;20196;-61
2021/03/17 02:15:24;;;;;;;5.05;2.97;;;;;;;;;;5095834;28;20224;-61
2021/03/17 02:17:53;;;;;;;6.28;3.00;;;;;;;;;;5095606;28;20184;-62
2021/03/17 02:20:32;;;;;;;10.15;3.47;;;;;;;;;;5095863;28;20200;-62
2021/03/17 02:23:02;;;;;;;5.18;2.70;;;;;;;;;;5096102;28;20184;-63
2021/03/17 02:25:53;;;;;;;7.88;3.17;;;;;;;;;;5095699;28;20221;-62
2021/03/17 02:28:25;;;;;;;5.70;2.65;;;;;;;;;;5080140;28;20220;-61
2021/03/17 02:31:19;;;;;;;2.78;2.53;;;;;;;;;;5095209;28;20189;-61
2021/03/17 02:33:51;;;;;;;13.77;3.75;;;;;;;;;;5095558;28;20224;-62
2021/03/17 02:36:20;;;;;;;8.38;3.55;;;;;;;;;;5095334;28;20195;-62
2021/03/17 02:38:49;;;;;;;5.78;2.75;;;;;;;;;;5095799;28;20208;-62
2021/03/17 02:41:19;;;;;;;5.40;2.95;;;;;;;;;;5095265;28;20200;-62
2021/03/17 02:43:47;;;;;;;7.82;3.17;;;;;;;;;;5095088;28;20696;-61
2021/03/17 02:46:15;;;;;;;8.18;3.55;;;;;;;;;;5093812;28;20204;-63
2021/03/17 02:48:44;;;;;;;5.20;2.97;;;;;;;;;;5095120;28;20219;-64
2021/03/17 02:51:17;;;;;;;6.82;3.55;;;;;;;;;;5108097;28;20351;-62
2021/03/17 02:53:45;;;;;;;5.25;2.80;;;;;;;;;;5102152;28;20216;-61
2021/03/17 02:56:12;;;;;;;5.57;2.85;;;;;;;;;;5095905;28;20207;-63
2021/03/17 02:58:40;;;;;;;5.93;2.85;;;;;;;;;;5096058;28;20209;-63
2021/03/17 03:01:07;;;;;;;4.50;2.50;;;;;;;;;;5095359;28;20200;-61
2021/03/17 03:03:35;;;;;;;4.28;3.20;;;;;;;;;;5096030;28;20227;-62
2021/03/17 03:06:03;;;;;;;4.25;2.65;;;;;;;;;;5096168;28;20213;-62
2021/03/17 03:08:31;;;;;;;8.25;3.05;;;;;;;;;;5095788;28;20220;-63
2021/03/17 03:10:59;;;;;;;5.70;3.30;;;;;;;;;;5094513;28;20200;-61
2021/03/17 03:13:26;;;;;;;6.30;3.53;;;;;;;;;;5094277;28;20668;-62
2021/03/17 03:15:55;;;;;;;8.15;3.17;;;;;;;;;;5094374;28;20200;-62
2021/03/17 03:18:23;;;;;;;3.90;2.72;;;;;;;;;;5094561;28;20258;-62
2021/03/17 03:20:50;;;;;;;6.78;3.40;;;;;;;;;;5094145;28;20204;-61
2021/03/17 03:23:18;;;;;;;4.03;2.80;;;;;;;;;;5094535;28;20585;-62
2021/03/17 03:25:47;;;;;;;10.48;3.03;;;;;;;;;;5094051;28;20281;-62
2021/03/17 03:28:15;;;;;;;7.20;3.53;;;;;;;;;;5094229;28;20220;-62
2021/03/17 03:30:43;;;;;;;7.57;3.53;;;;;;;;;;5094549;28;20200;-61
2021/03/17 03:33:10;;;;;;;7.10;3.33;;;;;;;;;;5094584;28;20223;-61
2021/03/17 03:35:37;;;;;;;6.50;3.50;;;;;;;;;;5094594;28;20211;-62
2021/03/17 03:38:05;;;;;;;5.85;4.00;;;;;;;;;;5094312;28;20200;-62
2021/03/17 03:40:32;;;;;;;8.43;3.65;;;;;;;;;;5093832;28;20204;-62
2021/03/17 03:43:00;;;;;;;4.70;3.30;;;;;;;;;;5094257;28;20196;-62
2021/03/17 03:45:27;;;;;;;10.35;4.00;;;;;;;;;;5094088;28;20224;-61
2021/03/17 03:47:54;;;;;;;4.75;2.90;;;;;;;;;;5093670;28;20200;-61
2021/03/17 03:50:22;;;;;;;4.97;2.78;;;;;;;;;;5093882;28;20205;-61
2021/03/17 03:52:51;;;;;;;8.18;3.75;;;;;;;;;;5093648;28;20249;-62
2021/03/17 03:55:20;;;;;;;5.90;2.90;;;;;;;;;;5093938;28;20585;-61
2021/03/17 03:57:48;;;;;;;6.38;3.80;;;;;;;;;;5093236;28;20613;-62
2021/03/17 04:00:18;;;;;;;7.38;3.90;;;;;;;;;;5093599;28;20278;-62
2021/03/17 04:02:46;;;;;;;7.53;3.10;;;;;;;;;;5093327;28;20203;-62
2021/03/17 04:07:53;;;;;;;9.15;3.85;;;;;;;;;;5112188;27;21040;-62
2021/03/17 04:10:22;;;;;;;9.73;4.07;;;;;;;;;;5111499;28;20195;-62
2021/03/17 04:12:50;;;;;;;6.82;4.35;;;;;;;;;;5111415;28;20225;-62
2021/03/17 04:15:17;;;;;;;10.43;4.25;;;;;;;;;;5111718;28;20220;-62
2021/03/17 04:17:47;;;;;;;7.40;3.95;;;;;;;;;;5111214;28;20196;-62
2021/03/17 04:20:16;;;;;;;8.15;4.45;;;;;;;;;;5111454;28;20237;-62
2021/03/17 04:22:44;;;;;;;11.90;3.70;;;;;;;;;;5112198;28;20196;-62
2021/03/17 04:25:12;;;;;;;5.85;4.18;;;;;;;;;;5112037;28;20226;-62
2021/03/17 04:27:41;;;;;;;6.07;3.92;;;;;;;;;;5112474;28;20219;-63
2021/03/17 04:30:10;;;;;;;12.38;4.22;;;;;;;;;;5112889;28;20199;-63
2021/03/17 04:32:38;;;;;;;4.32;3.38;;;;;;;;;;5111451;28;20659;-62
2021/03/17 04:35:06;;;;;;;9.23;4.47;;;;;;;;;;5112032;28;20255;-62
2021/03/17 04:37:33;;;;;;;7.00;4.60;;;;;;;;;;5111497;28;20202;-61
2021/03/17 04:40:01;;;;;;;12.13;4.80;;;;;;;;;;5112025;28;20222;-62
2021/03/17 04:42:29;;;;;;;6.00;4.53;;;;;;;;;;5110701;28;20748;-63
2021/03/17 04:44:56;;;;;;;8.63;4.13;;;;;;;;;;5110885;28;20228;-62
2021/03/17 04:47:23;;;;;;;7.88;4.45;;;;;;;;;;5110839;28;20696;-62
2021/03/17 04:49:50;;;;;;;5.82;4.13;;;;;;;;;;5110606;28;20574;-61
2021/03/17 04:52:19;;;;;;;7.85;4.50;;;;;;;;;;5111157;28;20205;-61
2021/03/17 04:54:46;;;;;;;9.38;4.75;;;;;;;;;;5110886;28;20224;-62
2021/03/17 04:57:14;;;;;;;7.30;3.78;;;;;;;;;;5110409;28;20668;-62
2021/03/17 04:59:42;;;;;;;6.85;4.20;;;;;;;;;;5110956;28;20207;-62
2021/03/17 05:02:09;;;;;;;10.07;4.55;;;;;;;;;;5110580;28;20207;-62
2021/03/17 05:04:36;;;;;;;8.05;5.35;;;;;;;;;;5110443;28;20226;-60
2021/03/17 05:07:04;;;;;;;7.72;4.60;;;;;;;;;;5110150;28;20281;-62
2021/03/17 05:09:30;;;;;;;9.77;5.03;;;;;;;;;;5110529;28;20211;-60
2021/03/17 05:12:00;;;;;;;9.70;5.18;;;;;;;;;;5110604;28;20566;-62
2021/03/17 05:14:27;;;;;;;8.30;4.38;;;;;;;;;;5110430;28;20251;-63
2021/03/17 05:16:55;;;;;;;6.97;4.22;;;;;;;;;;5110123;28;20236;-61
2021/03/17 05:19:22;;;;;;;6.95;3.70;;;;;;;;;;5095942;28;20571;-63
2021/03/17 05:21:49;;;;;;;3.83;2.95;;;;;;;;;;5096410;28;20204;-63
2021/03/17 05:24:15;;;;;;;7.32;3.47;;;;;;;;;;5097042;28;20276;-61
2021/03/17 05:26:42;;;;;;;8.82;3.83;;;;;;;;;;5096721;28;20216;-60
2021/03/17 05:29:10;;;;;;;7.95;4.40;;;;;;;;;;5096493;28;20204;-62
2021/03/17 05:31:37;;;;;;;6.93;3.92;;;;;;;;;;5096356;28;20208;-61
2021/03/17 05:34:04;;;;;;;6.13;3.03;;;;;;;;;;5096440;28;20263;-63
2021/03/17 05:36:32;;;;;;;14.82;3.30;;;;;;;;;;5096043;28;20607;-62
2021/03/17 05:38:58;;;;;;;4.95;3.80;;;;;;;;;;5095906;28;20672;-62
2021/03/17 05:41:26;;;;;;;3.30;3.00;;;;;;;;;;5095927;28;20649;-61
2021/03/17 05:43:52;;;;;;;4.00;2.65;;;;;;;;;;5096475;28;20315;-62
2021/03/17 05:46:20;;;;;;;6.93;2.85;;;;;;;;;;5096303;28;20216;-62
2021/03/17 05:48:47;;;;;;;4.10;2.72;;;;;;;;;;5095711;28;20211;-62
2021/03/17 05:51:15;;;;;;;9.18;2.65;;;;;;;;;;5096113;28;20212;-61
2021/03/17 05:53:41;;;;;;;6.22;2.70;;;;;;;;;;5096224;28;20273;-61
2021/03/17 05:56:08;;;;;;;5.60;2.83;;;;;;;;;;5097920;28;20197;-62
2021/03/17 05:58:35;;;;;;;4.13;2.20;;;;;;;;;;5104647;28;20207;-62
2021/03/17 06:01:02;;;;;;;4.53;2.90;;;;;;;;;;5105288;28;20668;-62
2021/03/17 06:03:32;;;;;;;6.28;3.17;;;;;;;;;;5101184;28;20204;-62
2021/03/17 06:05:59;;;;;;;4.60;2.70;;;;;;;;;;5102379;28;20242;-61
2021/03/17 06:08:28;;;;;;;4.55;3.88;;;;;;;;;;5097409;28;20200;-62
2021/03/17 06:10:55;;;;;;;5.07;2.42;;;;;;;;;;5096005;28;20204;-62
2021/03/17 06:13:22;;;;;;;4.78;2.65;;;;;;;;;;5096417;28;20204;-62
2021/03/17 06:15:52;;;;;;;7.85;3.22;;;;;;;;;;5095237;28;20249;-61
2021/03/17 06:18:23;;;;;;;5.57;2.92;;;;;;;;;;5099306;28;20226;-62
2021/03/17 06:20:50;;;;;;;7.07;3.50;;;;;;;;;;5104582;28;20188;-62
2021/03/17 06:23:17;;;;;;;6.18;2.50;;;;;;;;;;5108669;28;20196;-62
2021/03/17 06:25:44;;;;;;;4.72;2.83;;;;;;;;;;5103094;28;20258;-63
2021/03/17 06:28:12;;;;;;;5.72;2.70;;;;;;;;;;5095453;28;20250;-62
2021/03/17 06:30:39;;;;;;;6.90;3.42;;;;;;;;;;5094100;28;20544;-64
2021/03/17 06:33:06;;;;;;;4.78;3.15;;;;;;;;;;5095045;28;20664;-63
2021/03/17 06:35:32;;;;;;;6.25;2.90;;;;;;;;;;5094975;28;20281;-63
2021/03/17 06:37:59;;;;;;;9.65;2.67;;;;;;;;;;5094830;28;20560;-63
2021/03/17 06:40:28;;;;;;;4.85;2.75;;;;;;;;;;5095334;28;20204;-62
2021/03/17 06:42:56;;;;;;;6.70;3.53;;;;;;;;;;5096428;28;20204;-64
2021/03/17 06:45:29;;;;;;;4.32;2.72;;;;;;;;;;5094931;28;20254;-64
2021/03/17 06:47:56;;;;;;;4.50;2.95;;;;;;;;;;5094980;28;20315;-63
2021/03/17 06:50:29;;;;;;;7.72;3.42;;;;;;;;;;5094854;28;20555;-64
2021/03/17 06:52:56;;;;;;;6.85;2.70;;;;;;;;;;5094498;28;20712;-63
2021/03/17 06:55:23;;;;;;;5.00;2.92;;;;;;;;;;5094615;28;20220;-63
2021/03/17 06:57:50;;;;;;;7.65;3.10;;;;;;;;;;5094589;28;20250;-63
2021/03/17 07:00:26;;;;;;;6.93;3.30;;;;;;;;;;5093872;28;20429;-63
2021/03/17 07:02:57;;;;;;;6.43;3.20;;;;;;;;;;5096323;28;20271;-62
2021/03/17 07:05:37;;;;;;;5.15;2.80;;;;;;;;;;5095009;28;20220;-62
2021/03/17 07:08:04;;;;;;;7.43;2.83;;;;;;;;;;5095040;28;20262;-62
2021/03/17 07:10:32;;;;;;;11.02;3.03;;;;;;;;;;5094975;28;20210;-61
2021/03/17 07:12:59;;;;;;;8.90;3.33;;;;;;;;;;5094895;28;20208;-61
2021/03/17 07:15:27;;;;;;;7.47;3.70;;;;;;;;;;5094736;28;20225;-63
2021/03/17 07:17:54;;;;;;;8.88;3.30;;;;;;;;;;5094985;28;20200;-62
2021/03/17 07:20:37;;;;;;;4.72;3.30;;;;;;;;;;5096276;28;20664;-62
2021/03/17 07:23:19;;;;;;;12.77;3.00;;;;;;;;;;5095224;28;20203;-60
2021/03/17 07:26:03;;;;;;;6.00;3.53;;;;;;;;;;5095572;28;20195;-61
2021/03/17 07:28:29;;;;;;;5.60;3.00;;;;;;;;;;5094436;28;20195;-63
2021/03/17 07:31:13;;;;;;;5.65;2.92;;;;;;;;;;5094290;28;20200;-63
2021/03/17 07:33:39;;;;;;;9.68;3.10;;;;;;;;;;5093792;28;20632;-64
2021/03/17 07:36:06;;;;;;;7.20;2.42;;;;;;;;;;5093746;28;20241;-62
2021/03/17 07:38:33;;;;;;;9.18;3.35;;;;;;;;;;5094893;28;20204;-62
2021/03/17 07:41:00;;;;;;;5.95;3.25;;;;;;;;;;5093984;28;20207;-61
2021/03/17 07:43:27;;;;;;;10.40;3.90;;;;;;;;;;5093894;28;20525;-63
2021/03/17 07:45:54;;;;;;;7.82;3.13;;;;;;;;;;5094092;28;20207;-62
2021/03/17 07:48:22;;;;;;;4.75;2.60;;;;;;;;;;5094193;28;20346;-62
2021/03/17 07:50:51;;;;;;;3.78;2.05;;;;;;;;;;5094263;28;20683;-61
2021/03/17 07:53:20;;;;;;;5.90;2.80;;;;;;;;;;5094335;28;20569;-62
2021/03/17 07:55:47;;;;;;;6.03;3.17;;;;;;;;;;5094064;28;20200;-63
2021/03/17 07:58:14;;;;;;;5.88;2.97;;;;;;;;;;5093626;28;20204;-62
2021/03/17 08:00:42;;;;;;;5.72;3.20;;;;;;;;;;5094022;28;20567;-63
2021/03/17 08:03:10;;;;;;;4.28;2.00;;;;;;;;;;5094057;28;20667;-63
2021/03/17 08:05:37;;;;;;;5.88;3.20;;;;;;;;;;5094146;28;20200;-62
2021/03/17 08:08:06;;;;;;;9.18;2.47;;;;;;;;;;5093799;28;20204;-62
2021/03/17 08:10:33;;;;;;;10.25;2.80;;;;;;;;;;5093726;28;20664;-63
2021/03/17 08:13:00;;;;;;;9.20;2.55;;;;;;;;;;5094452;28;20199;-63
2021/03/17 08:15:27;;;;;;;11.90;4.28;;;;;;;;;;5094393;28;20224;-63
2021/03/17 08:17:54;;;;;;;6.18;2.40;;;;;;;;;;5094605;28;20201;-63
2021/03/17 08:20:22;;;;;;;6.72;2.58;;;;;;;;;;5093742;28;20200;-63
2021/03/17 08:22:51;;;;;;;5.80;2.53;;;;;;;;;;5093356;28;20694;-63
2021/03/17 08:25:32;;;;;;;5.13;1.80;;;;;;;;;;5093393;28;20223;-63
2021/03/17 08:28:14;;;;;;;6.80;2.30;;;;;;;;;;5092300;28;20220;-63
2021/03/17 08:30:40;;;;;;;3.60;1.75;;;;;;;;;;5093438;28;20233;-63
2021/03/17 08:33:07;;;;;;;4.07;1.90;;;;;;;;;;5094046;28;20203;-61
2021/03/17 08:35:53;;;;;;;8.82;2.88;;;;;;;;;;5093937;28;20232;-62
2021/03/17 08:38:20;;;;;;;4.30;2.17;;;;;;;;;;5094066;28;20200;-63
2021/03/17 08:40:48;;;;;;;3.85;2.50;;;;;;;;;;5093222;28;20744;-62
2021/03/17 08:43:34;;;;;;;3.92;1.88;;;;;;;;;;5093259;28;20236;-63
2021/03/17 08:46:06;;;;;;;4.20;1.90;;;;;;;;;;5093526;28;20196;-62
2021/03/17 08:48:51;;;;;;;4.93;1.83;;;;;;;;;;5094269;28;20665;-63
2021/03/17 08:51:18;;;;;;;2.78;1.13;;;;;;;;;;5094163;28;20204;-62
2021/03/17 08:53:47;;;;;;;8.85;2.15;;;;;;;;;;5096667;28;20232;-62
2021/03/17 08:56:28;;;;;;;5.18;1.88;;;;;;;;;;5099883;28;20632;-63
2021/03/17 08:59:10;;;;;;;2.50;1.58;;;;;;;;;;5098812;28;20200;-61
2021/03/17 09:01:37;;;;;;;1.60;1.33;;;;;;;;;;5099832;28;20258;-61
2021/03/17 09:04:04;;;;;;;2.78;1.50;;;;;;;;;;5100196;28;20223;-62
2021/03/17 09:06:30;;;;;;;2.30;1.20;;;;;;;;;;5103997;28;20572;-62
2021/03/17 09:08:59;;;;;;;3.20;1.50;;;;;;;;;;5100472;28;20200;-62
2021/03/17 09:11:58;;;;;;;5.32;1.63;;;;;;;;;;5099991;28;20204;-63
2021/03/17 09:14:29;;;;;;;4.75;1.60;;;;;;;;;;5098337;28;20564;-62
2021/03/17 09:17:23;;;;;;;4.72;1.40;;;;;;;;;;5097392;28;20656;-62
2021/03/17 09:19:54;;;;;;;5.15;2.00;;;;;;;;;;5064402;28;20258;-63
2021/03/17 09:22:31;;;;;;;1.85;1.55;;;;;;;;;;5097326;28;20203;-61
2021/03/17 09:24:59;;;;;;;1.85;1.58;;;;;;;;;;5098310;28;20223;-62
2021/03/17 09:27:26;;;;;;;4.10;1.20;;;;;;;;;;5096909;28;20220;-62
2021/03/17 09:29:52;;;;;;;2.33;1.30;;;;;;;;;;5097640;28;20572;-62
2021/03/17 09:32:19;;;;;;;5.88;1.55;;;;;;;;;;5098266;28;20204;-62
2021/03/17 09:34:46;;;;;;;5.10;1.92;;;;;;;;;;5098496;28;20220;-61
2021/03/17 09:37:13;;;;;;;4.95;1.80;;;;;;;;;;5097471;28;20200;-61
2021/03/17 09:39:48;;;;;;;2.92;2.08;;;;;;;;;;5096863;28;20222;-62
2021/03/17 09:42:16;;;;;;;6.50;1.88;;;;;;;;;;5096773;28;20529;-61
2021/03/17 09:44:43;;;;;;;5.40;1.70;;;;;;;;;;5096162;28;20559;-62
2021/03/17 09:47:10;;;;;;;2.10;1.40;;;;;;;;;;5096225;28;20223;-62
2021/03/17 09:49:36;;;;;;;4.53;1.60;;;;;;;;;;5096856;28;20200;-61
2021/03/17 09:52:04;;;;;;;3.45;1.75;;;;;;;;;;5095993;28;20200;-61
2021/03/17 09:54:32;;;;;;;3.75;1.60;;;;;;;;;;5096198;28;20742;-62
2021/03/17 09:57:00;;;;;;;8.07;2.47;;;;;;;;;;5096486;28;20203;-62
2021/03/17 09:59:28;;;;;;;2.42;1.52;;;;;;;;;;5096508;28;20204;-61
2021/03/17 10:01:56;;;;;;;1.80;1.40;;;;;;;;;;5097108;28;20207;-62
2021/03/17 10:04:24;;;;;;;5.13;1.83;;;;;;;;;;5099355;28;20277;-62
2021/03/17 10:06:51;;;;;;;3.95;2.00;;;;;;;;;;5098277;28;20216;-61
2021/03/17 10:09:18;;;;;;;3.15;1.38;;;;;;;;;;5098353;28;20207;-62
2021/03/17 10:11:45;;;;;;;3.25;1.60;;;;;;;;;;5097696;28;20204;-62
2021/03/17 10:14:13;;;;;;;5.10;2.35;;;;;;;;;;5097428;28;20224;-62
2021/03/17 10:16:41;;;;;;;7.43;1.70;;;;;;;;;;5097037;28;20220;-60
2021/03/17 10:19:12;;;;;;;1.55;1.35;;;;;;;;;;5097007;28;20261;-61
2021/03/17 10:21:39;;;;;;;3.58;1.90;;;;;;;;;;5095333;28;20656;-62
2021/03/17 10:24:06;;;;;;;3.33;2.10;;;;;;;;;;5095384;28;20312;-61
2021/03/17 10:26:35;;;;;;;6.35;1.80;;;;;;;;;;5095725;28;20285;-63
2021/03/17 10:29:03;;;;;;;6.15;2.08;;;;;;;;;;5095673;28;20204;-61
2021/03/17 10:31:31;;;;;;;6.90;1.90;;;;;;;;;;5095382;28;20204;-62
2021/03/17 10:33:58;;;;;;;3.60;1.42;;;;;;;;;;5094102;28;20440;-62
2021/03/17 10:36:25;;;;;;;2.92;1.88;;;;;;;;;;5095350;28;20200;-62
2021/03/17 10:38:52;;;;;;;5.43;1.85;;;;;;;;;;5095517;28;20200;-62
2021/03/17 10:41:38;;;;;;;4.07;2.00;;;;;;;;;;5095652;28;20196;-62
2021/03/17 10:44:17;;;;;;;3.75;1.65;;;;;;;;;;5095949;28;20220;-61
2021/03/17 10:46:58;;;;;;;1.45;1.30;;;;;;;;;;5094872;28;20267;-63
2021/03/17 10:49:25;;;;;;;6.80;1.77;;;;;;;;;;5095268;28;20235;-60
2021/03/17 10:51:52;;;;;;;3.60;1.77;;;;;;;;;;5095047;28;20246;-62
2021/03/17 10:54:27;;;;;;;6.65;2.05;;;;;;;;;;5094950;28;20224;-62
2021/03/17 10:56:54;;;;;;;3.22;1.60;;;;;;;;;;5095573;28;20325;-63
2021/03/17 10:59:25;;;;;;;3.28;1.58;;;;;;;;;;5094747;28;20200;-62
2021/03/17 11:02:14;;;;;;;5.60;1.88;;;;;;;;;;5094480;28;20672;-63
2021/03/17 11:05:03;;;;;;;3.60;1.52;;;;;;;;;;5094920;28;20228;-63
2021/03/17 11:07:30;;;;;;;4.40;2.15;;;;;;;;;;5095072;28;20252;-62
2021/03/17 11:09:56;;;;;;;3.05;1.67;;;;;;;;;;5094843;28;20209;-62
2021/03/17 11:12:29;;;;;;;3.65;1.77;;;;;;;;;;5094498;28;20530;-63
2021/03/17 11:14:56;;;;;;;3.90;1.33;;;;;;;;;;5094464;28;20225;-62
2021/03/17 11:17:23;;;;;;;4.90;1.30;;;;;;;;;;5093985;28;20249;-62
2021/03/17 11:19:59;;;;;;;3.97;1.30;;;;;;;;;;5094177;28;20208;-62
2021/03/17 11:22:32;;;;;;;7.35;2.42;;;;;;;;;;5094030;28;20194;-63
2021/03/17 11:25:04;;;;;;;5.70;1.60;;;;;;;;;;5094135;28;20590;-63
2021/03/17 11:27:31;;;;;;;3.83;1.50;;;;;;;;;;5095776;28;20212;-63
2021/03/17 11:29:57;;;;;;;4.53;1.50;;;;;;;;;;5095173;28;20201;-62
2021/03/17 11:32:30;;;;;;;3.45;1.40;;;;;;;;;;5094697;28;20582;-63
2021/03/17 11:34:56;;;;;;;4.63;1.60;;;;;;;;;;5094897;28;20689;-62
2021/03/17 11:37:24;;;;;;;2.75;1.55;;;;;;;;;;5094615;28;20200;-61
2021/03/17 11:39:51;;;;;;;3.97;1.90;;;;;;;;;;5094914;28;20204;-62
2021/03/17 11:42:17;;;;;;;3.15;1.40;;;;;;;;;;5097053;28;20200;-63
2021/03/17 11:44:44;;;;;;;6.13;1.60;;;;;;;;;;5094650;28;20221;-61
2021/03/17 11:47:11;;;;;;;3.45;1.50;;;;;;;;;;5095661;28;20228;-61
2021/03/17 11:49:38;;;;;;;4.82;1.80;;;;;;;;;;5094389;28;20204;-62
2021/03/17 11:52:05;;;;;;;2.78;1.20;;;;;;;;;;5096643;28;20207;-62
2021/03/17 11:54:33;;;;;;;2.63;1.65;;;;;;;;;;5094878;28;20297;-63
2021/03/17 11:57:01;;;;;;;5.22;1.90;;;;;;;;;;5095937;28;20201;-61
2021/03/17 11:59:28;;;;;;;3.97;1.70;;;;;;;;;;5095287;28;20638;-62
2021/03/17 12:01:54;;;;;;;6.75;2.10;;;;;;;;;;5094959;28;20210;-63
2021/03/17 12:04:21;;;;;;;3.55;1.60;;;;;;;;;;5094868;28;20299;-63
2021/03/17 12:06:48;;;;;;;5.10;1.70;;;;;;;;;;5093965;28;20846;-61
2021/03/17 12:09:15;;;;;;;2.40;2.00;;;;;;;;;;5094144;28;20207;-62
2021/03/17 12:11:43;;;;;;;5.13;1.60;;;;;;;;;;5101528;28;20441;-63
2021/03/17 12:14:09;;;;;;;4.90;2.17;;;;;;;;;;5102951;28;20219;-62
2021/03/17 12:16:36;;;;;;;4.40;1.87;;;;;;;;;;5094516;28;20446;-63
2021/03/17 12:19:03;;;;;;;4.88;1.50;;;;;;;;;;5095615;28;20978;-64
2021/03/17 12:21:30;;;;;;;3.38;1.77;;;;;;;;;;5094823;28;20258;-62
2021/03/17 12:23:57;;;;;;;3.92;1.80;;;;;;;;;;5094407;28;20304;-63
2021/03/17 12:26:24;;;;;;;3.37;1.50;;;;;;;;;;5097144;28;20214;-63
2021/03/17 12:28:51;;;;;;;3.97;2.20;;;;;;;;;;5096940;28;20443;-64
2021/03/17 12:31:18;;;;;;;4.10;2.10;;;;;;;;;;5098470;28;20445;-63
2021/03/17 12:33:45;;;;;;;5.00;1.85;;;;;;;;;;5097398;28;20234;-63
2021/03/17 12:36:12;;;;;;;2.30;1.70;;;;;;;;;;5098001;28;20225;-63
2021/03/17 12:38:38;;;;;;;2.53;2.33;;;;;;;;;;5097534;28;20806;-64
2021/03/17 12:41:05;;;;;;;1.90;1.63;;;;;;;;;;5097170;28;20506;-61
2021/03/17 12:43:32;;;;;;;3.07;1.70;;;;;;;;;;5097520;28;20465;-64
2021/03/17 12:46:00;;;;;;;2.30;1.40;;;;;;;;;;5097180;28;20456;-62
2021/03/17 12:48:26;;;;;;;3.03;1.88;;;;;;;;;;5096924;28;20534;-62
2021/03/17 12:50:53;;;;;;;2.10;1.77;;;;;;;;;;5097286;28;20209;-62
2021/03/17 12:53:20;;;;;;;3.28;1.60;;;;;;;;;;5097126;28;20207;-62
2021/03/17 12:55:46;;;;;;;3.08;1.65;;;;;;;;;;5097274;28;20273;-64
2021/03/17 12:58:13;;;;;;;4.07;1.73;;;;;;;;;;5096705;28;20583;-63
2021/03/17 13:00:40;;;;;;;3.42;1.58;;;;;;;;;;5096928;28;20232;-61
2021/03/17 13:03:08;;;;;;;4.05;1.80;;;;;;;;;;5096354;28;20697;-62
2021/03/17 13:05:35;;;;;;;3.42;1.88;;;;;;;;;;5096546;28;20226;-61
2021/03/17 13:08:01;;;;;;;3.58;1.80;;;;;;;;;;5096297;28;20207;-62
2021/03/17 13:10:28;;;;;;;2.83;1.80;;;;;;;;;;5096553;28;20197;-62
2021/03/17 13:12:55;;;;;;;3.83;1.52;;;;;;;;;;5096533;28;20459;-62
2021/03/17 13:15:22;;;;;;;4.20;1.90;;;;;;;;;;5095900;28;20223;-62
2021/03/17 13:17:49;;;;;;;4.35;1.70;;;;;;;;;;5096612;28;20198;-64
2021/03/17 13:20:18;;;;;;;3.25;1.95;;;;;;;;;;5096081;28;20667;-62
2021/03/17 13:22:45;;;;;;;3.07;1.70;;;;;;;;;;5096115;28;20627;-63
2021/03/17 13:25:13;;;;;;;4.22;1.60;;;;;;;;;;5095712;28;20500;-62
2021/03/17 13:27:39;;;;;;;3.17;1.90;;;;;;;;;;5096584;28;20228;-63
2021/03/17 13:30:09;;;;;;;3.90;1.93;;;;;;;;;;5096275;28;20204;-63
2021/03/17 13:32:36;;;;;;;4.10;1.88;;;;;;;;;;5096255;28;20467;-63
2021/03/17 13:35:02;;;;;;;3.90;1.60;;;;;;;;;;5096278;28;20227;-62
2021/03/17 13:37:30;;;;;;;3.10;1.70;;;;;;;;;;5095840;28;20441;-64
2021/03/17 13:39:57;;;;;;;3.20;1.70;;;;;;;;;;5095718;28;20452;-62
2021/03/17 13:42:24;;;;;;;4.05;1.50;;;;;;;;;;5096418;28;20966;-63
2021/03/17 13:44:51;;;;;;;4.80;1.90;;;;;;;;;;5095792;28;20226;-62
2021/03/17 13:47:18;;;;;;;4.45;1.92;;;;;;;;;;5095909;28;20219;-63
2021/03/17 13:49:45;;;;;;;2.95;1.73;;;;;;;;;;5097393;28;20240;-62
2021/03/17 13:52:12;;;;;;;3.47;1.90;;;;;;;;;;5096121;28;20592;-62
2021/03/17 13:54:39;;;;;;;3.70;1.83;;;;;;;;;;5096152;28;20981;-63
2021/03/17 13:57:06;;;;;;;2.67;1.80;;;;;;;;;;5095833;28;20359;-62
2021/03/17 13:59:33;;;;;;;2.33;1.97;;;;;;;;;;5096396;28;20210;-62
2021/03/17 14:01:59;;;;;;;4.18;2.00;;;;;;;;;;5096207;28;20445;-62
2021/03/17 14:04:27;;;;;;;5.03;1.80;;;;;;;;;;5098123;28;20230;-63
2021/03/17 14:06:54;;;;;;;3.95;1.95;;;;;;;;;;5099246;28;20724;-62
2021/03/17 14:09:20;;;;;;;4.68;1.67;;;;;;;;;;5099657;28;20210;-62
2021/03/17 14:11:48;;;;;;;2.30;1.95;;;;;;;;;;5100781;28;20606;-62
2021/03/17 14:14:15;;;;;;;6.65;2.33;;;;;;;;;;5098739;28;20230;-61
2021/03/17 14:16:41;;;;;;;6.03;2.15;;;;;;;;;;5100268;28;20197;-61
2021/03/17 14:19:09;;;;;;;5.38;1.90;;;;;;;;;;5096542;28;20229;-63
2021/03/17 14:21:36;;;;;;;3.10;1.80;;;;;;;;;;5096463;28;20201;-64
2021/03/17 14:24:03;;;;;;;4.65;2.22;;;;;;;;;;5096074;28;20227;-63
2021/03/17 14:26:29;;;;;;;1.85;1.50;;;;;;;;;;5095209;28;20201;-63
2021/03/17 14:28:57;;;;;;;3.97;1.80;;;;;;;;;;5095252;28;20729;-63
2021/03/17 14:31:24;;;;;;;5.13;2.30;;;;;;;;;;5095609;28;20252;-64
2021/03/17 14:33:50;;;;;;;3.22;2.00;;;;;;;;;;5095546;28;20217;-64
2021/03/17 14:36:17;;;;;;;3.45;2.08;;;;;;;;;;5095438;28;20204;-64
2021/03/17 14:38:44;;;;;;;3.92;2.10;;;;;;;;;;5094668;28;20588;-64
2021/03/17 14:41:12;;;;;;;2.35;1.58;;;;;;;;;;5094456;28;20206;-64
2021/03/17 14:43:38;;;;;;;4.07;2.42;;;;;;;;;;5095033;28;20257;-65
2021/03/17 14:46:07;;;;;;;3.30;2.38;;;;;;;;;;5094391;28;20197;-62
2021/03/17 14:48:34;;;;;;;3.88;1.90;;;;;;;;;;5094487;28;20220;-62
2021/03/17 14:51:00;;;;;;;3.45;1.80;;;;;;;;;;5093718;28;20213;-64
2021/03/17 14:53:27;;;;;;;3.72;1.85;;;;;;;;;;5094820;28;20223;-64